Time;durP1;ratioP1;P1;durP2;ratioP2;P2;SDS_P1;SDS_P2;PMS_P1;PMS_P2;Temp;Humidity;BMP_temperature;BMP_pressure;BME280_temperature;BME280_humidity;BME280_pressure;Samples;Min_cycle;Max_cycle;Signal;HPM_P1;HPM_P2
2022/07/06 00:02:05;;;;;;;1.38;0.50;;;23.00;55.80;;;;;;4493577;31;20283;-66
2022/07/06 00:04:30;;;;;;;1.88;0.88;;;23.00;55.80;;;;;;4494678;31;20481;-66
2022/07/06 00:06:57;;;;;;;1.80;0.68;;;23.00;55.80;;;;;;4494120;31;20080;-66
2022/07/06 00:09:23;;;;;;;2.03;0.63;;;23.00;55.80;;;;;;4494468;31;20081;-66
2022/07/06 00:11:48;;;;;;;1.15;0.50;;;23.00;55.80;;;;;;4494336;31;20422;-66
2022/07/06 00:14:14;;;;;;;1.77;0.40;;;23.00;55.80;;;;;;4493458;31;20068;-66
2022/07/06 00:16:40;;;;;;;1.58;0.57;;;23.00;55.80;;;;;;4494539;31;20502;-66
2022/07/06 00:19:06;;;;;;;2.17;0.47;;;23.00;55.80;;;;;;4494132;31;20422;-66
2022/07/06 00:21:32;;;;;;;1.10;0.32;;;23.00;55.80;;;;;;4494462;31;20065;-66
2022/07/06 00:23:57;;;;;;;1.27;0.40;;;23.00;55.80;;;;;;4493118;31;20080;-66
2022/07/06 00:26:23;;;;;;;1.45;0.65;;;23.00;55.80;;;;;;4494136;31;20069;-66
2022/07/06 00:28:49;;;;;;;2.33;0.50;;;23.00;55.80;;;;;;4494290;31;20080;-66
2022/07/06 00:31:15;;;;;;;1.58;0.50;;;23.00;55.80;;;;;;4493826;31;20245;-66
2022/07/06 00:33:41;;;;;;;4.05;0.60;;;23.00;55.90;;;;;;4493924;31;20073;-66
2022/07/06 00:36:07;;;;;;;1.50;0.50;;;23.00;55.90;;;;;;4493651;31;20080;-66
2022/07/06 00:38:33;;;;;;;1.10;0.45;;;22.90;55.90;;;;;;4494139;31;20069;-66
2022/07/06 00:40:58;;;;;;;1.55;0.50;;;22.90;55.90;;;;;;4493947;31;20524;-66
2022/07/06 00:43:24;;;;;;;3.08;0.60;;;22.90;55.90;;;;;;4493924;31;20613;-66
2022/07/06 00:45:50;;;;;;;3.10;0.73;;;22.90;55.90;;;;;;4493093;31;20640;-66
2022/07/06 00:48:16;;;;;;;2.00;0.40;;;22.90;55.90;;;;;;4493876;31;20084;-66
2022/07/06 00:50:42;;;;;;;1.33;0.40;;;23.00;56.00;;;;;;4493644;31;20080;-66
2022/07/06 00:53:09;;;;;;;1.08;0.40;;;22.90;55.90;;;;;;4493497;31;20084;-66
2022/07/06 00:55:40;;;;;;;0.88;0.40;;;22.90;55.90;;;;;;4493418;31;20076;-66
2022/07/06 00:58:07;;;;;;;1.02;0.38;;;22.90;55.90;;;;;;4493683;31;20088;-66
2022/07/06 01:00:35;;;;;;;2.05;0.60;;;22.90;55.90;;;;;;4493691;31;20100;-66
2022/07/06 01:03:01;;;;;;;1.58;0.57;;;22.90;56.00;;;;;;4493594;31;20091;-66
2022/07/06 01:05:28;;;;;;;2.47;0.50;;;22.90;56.00;;;;;;4493318;31;20093;-66
2022/07/06 01:07:54;;;;;;;1.50;0.60;;;22.90;56.00;;;;;;4493600;31;20081;-66
2022/07/06 01:10:21;;;;;;;2.65;0.47;;;22.90;56.00;;;;;;4493206;31;20105;-66
2022/07/06 01:12:48;;;;;;;1.00;0.38;;;22.90;56.00;;;;;;4493736;31;20132;-66
2022/07/06 01:15:16;;;;;;;1.90;0.55;;;22.90;56.00;;;;;;4493170;31;20096;-66
2022/07/06 01:17:43;;;;;;;1.98;0.50;;;22.90;56.00;;;;;;4493095;31;20095;-66
2022/07/06 01:20:13;;;;;;;1.23;0.40;;;22.90;56.00;;;;;;4492344;31;20086;-66
2022/07/06 01:22:39;;;;;;;1.63;0.57;;;22.90;56.00;;;;;;4493199;31;20207;-66
2022/07/06 01:25:06;;;;;;;1.75;0.60;;;22.90;56.00;;;;;;4492207;31;20521;-66
2022/07/06 01:27:39;;;;;;;0.88;0.50;;;22.90;56.00;;;;;;4493230;31;20223;-66
2022/07/06 01:30:13;;;;;;;1.37;0.60;;;22.90;56.00;;;;;;4493380;31;20091;-66
2022/07/06 01:32:40;;;;;;;1.10;0.50;;;22.90;56.00;;;;;;4493065;31;20069;-66
2022/07/06 01:35:08;;;;;;;0.68;0.32;;;22.80;56.00;;;;;;4493401;31;20392;-66
2022/07/06 01:37:33;;;;;;;1.67;0.63;;;22.90;56.00;;;;;;4493145;31;20120;-66
2022/07/06 01:40:00;;;;;;;0.80;0.30;;;22.80;56.00;;;;;;4491978;31;20079;-66
2022/07/06 01:42:27;;;;;;;1.45;0.40;;;22.80;56.00;;;;;;4493271;31;20195;-66
2022/07/06 01:44:53;;;;;;;1.33;0.57;;;22.80;56.00;;;;;;4493023;31;20077;-66
2022/07/06 01:47:19;;;;;;;1.83;0.40;;;22.80;56.00;;;;;;4492913;31;20490;-66
2022/07/06 01:49:44;;;;;;;1.45;0.50;;;22.80;56.00;;;;;;4492843;31;20231;-66
2022/07/06 01:52:10;;;;;;;0.85;0.35;;;22.80;56.00;;;;;;4493098;31;20540;-66
2022/07/06 01:54:36;;;;;;;0.98;0.32;;;22.80;56.00;;;;;;4493111;31;20086;-66
2022/07/06 01:57:02;;;;;;;0.90;0.40;;;22.80;56.10;;;;;;4492390;31;20072;-66
2022/07/06 01:59:28;;;;;;;2.05;0.70;;;22.80;56.10;;;;;;4492665;31;20073;-66
2022/07/06 02:01:55;;;;;;;1.23;0.55;;;22.80;56.10;;;;;;4492926;31;20084;-66
2022/07/06 02:04:21;;;;;;;2.88;0.50;;;22.80;56.10;;;;;;4492627;31;20115;-66
2022/07/06 02:06:47;;;;;;;1.60;0.63;;;22.80;56.10;;;;;;4492602;31;20092;-66
2022/07/06 02:09:13;;;;;;;2.60;0.50;;;22.80;56.10;;;;;;4492568;31;20084;-66
2022/07/06 02:11:39;;;;;;;2.42;0.50;;;22.80;56.10;;;;;;4492516;31;20163;-66
2022/07/06 02:14:04;;;;;;;1.10;0.40;;;22.80;56.10;;;;;;4492534;31;20063;-66
2022/07/06 02:16:30;;;;;;;2.35;0.45;;;22.80;56.10;;;;;;4492468;31;20152;-66
2022/07/06 02:18:56;;;;;;;1.50;0.40;;;22.80;56.10;;;;;;4491337;31;20147;-66
2022/07/06 02:21:23;;;;;;;1.83;0.50;;;22.80;56.10;;;;;;4492461;31;20128;-66
2022/07/06 02:23:49;;;;;;;1.17;0.50;;;22.80;56.20;;;;;;4492304;31;20103;-66
2022/07/06 02:26:14;;;;;;;1.60;0.47;;;22.80;56.10;;;;;;4492437;31;20402;-66
2022/07/06 02:28:40;;;;;;;1.48;0.43;;;22.80;56.10;;;;;;4492040;31;20120;-66
2022/07/06 02:31:06;;;;;;;1.30;0.47;;;22.80;56.20;;;;;;4492340;31;20398;-66
2022/07/06 02:33:32;;;;;;;0.98;0.40;;;22.80;56.20;;;;;;4492288;31;20088;-66
2022/07/06 02:35:57;;;;;;;1.42;0.40;;;22.70;56.20;;;;;;4491467;31;20117;-66
2022/07/06 02:38:23;;;;;;;0.98;0.30;;;22.80;56.20;;;;;;4492088;31;20298;-66
2022/07/06 02:40:49;;;;;;;1.48;0.45;;;22.70;56.20;;;;;;4491875;31;20483;-66
2022/07/06 02:43:15;;;;;;;1.45;0.30;;;22.70;56.20;;;;;;4492169;31;20077;-66
2022/07/06 02:45:41;;;;;;;2.38;0.32;;;22.70;56.20;;;;;;4490772;31;20487;-66
2022/07/06 02:48:07;;;;;;;0.57;0.30;;;22.70;56.20;;;;;;4492418;31;20088;-66
2022/07/06 02:50:33;;;;;;;2.78;0.43;;;22.70;56.20;;;;;;4491886;31;20356;-66
2022/07/06 02:52:59;;;;;;;1.08;0.40;;;22.70;56.20;;;;;;4492223;31;20360;-66
2022/07/06 02:55:25;;;;;;;0.85;0.40;;;22.70;56.20;;;;;;4492012;31;20085;-66
2022/07/06 02:57:50;;;;;;;1.65;0.65;;;22.70;56.20;;;;;;4490693;31;20092;-66
2022/07/06 03:00:16;;;;;;;1.58;0.35;;;22.70;56.20;;;;;;4490832;31;20203;-66
2022/07/06 03:02:43;;;;;;;1.23;0.55;;;22.70;56.20;;;;;;4491133;31;20364;-66
2022/07/06 03:05:09;;;;;;;0.73;0.35;;;22.70;56.20;;;;;;4492020;31;20487;-69
2022/07/06 03:07:35;;;;;;;1.65;0.40;;;22.70;56.30;;;;;;4491926;31;20069;-66
2022/07/06 03:10:01;;;;;;;0.63;0.38;;;22.70;56.20;;;;;;4491705;31;20100;-66
2022/07/06 03:12:26;;;;;;;1.05;0.32;;;22.70;56.20;;;;;;4491904;32;20065;-66
2022/07/06 03:14:52;;;;;;;1.13;0.40;;;22.70;56.30;;;;;;4491845;32;20065;-66
2022/07/06 03:17:18;;;;;;;1.60;0.45;;;22.60;56.20;;;;;;4491861;32;20100;-66
2022/07/06 03:19:44;;;;;;;1.08;0.30;;;22.70;56.30;;;;;;4491953;32;20080;-66
2022/07/06 03:22:10;;;;;;;1.27;0.30;;;22.70;56.30;;;;;;4491802;32;20652;-67
2022/07/06 03:24:36;;;;;;;0.90;0.30;;;22.60;56.20;;;;;;4491888;32;20080;-66
2022/07/06 03:27:02;;;;;;;1.58;0.52;;;22.60;56.20;;;;;;4491523;32;20057;-66
2022/07/06 03:29:27;;;;;;;1.83;0.40;;;22.70;56.30;;;;;;4491740;32;20054;-66
2022/07/06 03:31:53;;;;;;;1.15;0.43;;;22.60;56.30;;;;;;4491662;32;20135;-66
2022/07/06 03:34:19;;;;;;;0.65;0.20;;;22.60;56.30;;;;;;4491506;32;20139;-66
2022/07/06 03:36:45;;;;;;;1.75;0.40;;;22.60;56.40;;;;;;4491446;32;20084;-66
2022/07/06 03:39:10;;;;;;;1.20;0.47;;;22.60;56.40;;;;;;4491637;32;20109;-66
2022/07/06 03:41:36;;;;;;;1.00;0.30;;;22.60;56.30;;;;;;4491867;32;20065;-66
2022/07/06 03:44:02;;;;;;;1.02;0.40;;;22.60;56.30;;;;;;4491677;32;20356;-66
2022/07/06 03:46:29;;;;;;;1.40;0.30;;;22.60;56.40;;;;;;4491670;31;20418;-66
2022/07/06 03:48:54;;;;;;;1.27;0.43;;;22.60;56.40;;;;;;4491458;32;20069;-66
2022/07/06 03:51:20;;;;;;;1.00;0.40;;;22.60;56.40;;;;;;4490615;32;20093;-67
2022/07/06 03:53:46;;;;;;;1.45;0.35;;;22.60;56.40;;;;;;4491355;32;20077;-66
2022/07/06 03:56:27;;;;;;;0.63;0.20;;;22.60;56.40;;;;;;4491418;32;20061;-66
2022/07/06 03:58:54;;;;;;;0.50;0.20;;;22.60;56.40;;;;;;4491696;32;20507;-66
2022/07/06 04:01:20;;;;;;;0.95;0.30;;;22.60;56.40;;;;;;4491387;32;20073;-66
2022/07/06 04:03:46;;;;;;;0.43;0.25;;;22.60;56.50;;;;;;4491038;32;20623;-66
2022/07/06 04:06:13;;;;;;;1.45;0.40;;;22.60;56.50;;;;;;4491074;32;20089;-67
2022/07/06 04:08:39;;;;;;;1.95;0.40;;;22.60;56.50;;;;;;4491141;32;20166;-66
2022/07/06 04:11:05;;;;;;;2.78;0.40;;;22.60;56.50;;;;;;4491738;32;20081;-66
2022/07/06 04:13:31;;;;;;;1.00;0.30;;;22.60;56.50;;;;;;4491433;32;20291;-66
2022/07/06 04:15:56;;;;;;;1.13;0.40;;;22.60;56.50;;;;;;4491424;32;20073;-67
2022/07/06 04:18:22;;;;;;;1.13;0.40;;;22.60;56.50;;;;;;4491390;32;20076;-66
2022/07/06 04:20:48;;;;;;;2.05;0.38;;;22.50;56.40;;;;;;4491594;31;20074;-66
2022/07/06 04:23:14;;;;;;;0.98;0.20;;;22.60;56.50;;;;;;4494191;31;20138;-66
2022/07/06 04:25:40;;;;;;;1.02;0.30;;;22.50;56.40;;;;;;4494447;31;20178;-66
2022/07/06 04:28:06;;;;;;;1.92;0.55;;;22.50;56.50;;;;;;4494351;31;20459;-66
2022/07/06 04:30:32;;;;;;;1.00;0.30;;;22.50;56.40;;;;;;4494089;31;20097;-66
2022/07/06 04:32:58;;;;;;;1.90;0.50;;;22.50;56.40;;;;;;4494231;31;20077;-66
2022/07/06 04:35:24;;;;;;;0.75;0.20;;;22.50;56.50;;;;;;4494237;31;20092;-66
2022/07/06 04:37:50;;;;;;;1.13;0.43;;;22.50;56.50;;;;;;4493957;31;20057;-66
2022/07/06 04:40:16;;;;;;;1.10;0.22;;;22.50;56.40;;;;;;4493642;31;20134;-66
2022/07/06 04:42:41;;;;;;;0.52;0.20;;;22.50;56.40;;;;;;4493663;31;20140;-67
2022/07/06 04:45:09;;;;;;;1.02;0.30;;;22.50;56.50;;;;;;4493669;31;20150;-66
2022/07/06 04:47:35;;;;;;;1.25;0.40;;;22.50;56.50;;;;;;4493595;31;20083;-66
2022/07/06 04:50:01;;;;;;;0.68;0.20;;;22.50;56.50;;;;;;4492180;31;20104;-66
2022/07/06 04:52:27;;;;;;;1.17;0.30;;;22.50;56.40;;;;;;4493768;31;20085;-66
2022/07/06 04:54:54;;;;;;;1.65;0.47;;;22.50;56.50;;;;;;4493803;31;20085;-66
2022/07/06 04:57:20;;;;;;;1.52;0.30;;;22.50;56.50;;;;;;4493982;31;20398;-66
2022/07/06 04:59:46;;;;;;;1.20;0.35;;;22.50;56.60;;;;;;4493327;31;20079;-66
2022/07/06 05:02:12;;;;;;;0.40;0.20;;;22.50;56.50;;;;;;4493567;31;20398;-66
2022/07/06 05:04:39;;;;;;;1.73;0.30;;;22.50;56.60;;;;;;4493909;31;20091;-66
2022/07/06 05:07:05;;;;;;;1.13;0.30;;;22.50;56.60;;;;;;4493892;31;20077;-66
2022/07/06 05:09:31;;;;;;;1.45;0.43;;;22.50;56.60;;;;;;4493639;31;20438;-66
2022/07/06 05:11:56;;;;;;;1.85;0.40;;;22.50;56.60;;;;;;4493505;31;20069;-66
2022/07/06 05:14:22;;;;;;;1.17;0.30;;;22.50;56.60;;;;;;4493487;31;20223;-66
2022/07/06 05:16:48;;;;;;;1.48;0.40;;;22.50;56.60;;;;;;4493642;31;20061;-66
2022/07/06 05:19:14;;;;;;;0.73;0.30;;;22.50;56.60;;;;;;4493036;31;20131;-66
2022/07/06 05:21:40;;;;;;;1.05;0.40;;;22.50;56.60;;;;;;4493109;31;20192;-66
2022/07/06 05:24:06;;;;;;;0.88;0.20;;;22.50;56.60;;;;;;4493331;31;20249;-66
2022/07/06 05:26:32;;;;;;;0.47;0.20;;;22.50;56.70;;;;;;4493268;31;20084;-66
2022/07/06 05:28:58;;;;;;;2.13;0.30;;;22.50;56.60;;;;;;4492948;31;20222;-67
2022/07/06 05:31:24;;;;;;;0.57;0.25;;;22.50;56.60;;;;;;4493325;31;20417;-66
2022/07/06 05:33:49;;;;;;;0.70;0.30;;;22.50;56.70;;;;;;4492910;31;20065;-66
2022/07/06 05:36:15;;;;;;;1.60;0.35;;;22.50;56.70;;;;;;4493405;31;20211;-66
2022/07/06 05:38:41;;;;;;;1.25;0.40;;;22.50;56.70;;;;;;4492673;31;20458;-66
2022/07/06 05:41:07;;;;;;;1.73;0.40;;;22.50;56.60;;;;;;4492691;31;20069;-66
2022/07/06 05:43:36;;;;;;;1.02;0.45;;;22.50;56.60;;;;;;4493258;31;20080;-66
2022/07/06 05:46:01;;;;;;;0.75;0.30;;;22.50;56.70;;;;;;4493196;31;20526;-66
2022/07/06 05:51:22;;;;;;;1.17;0.38;;;22.50;56.60;;;;;;4449491;31;20520;-66
2022/07/06 05:53:48;;;;;;;2.08;0.60;;;22.50;56.60;;;;;;4493191;31;20071;-66
2022/07/06 05:56:14;;;;;;;0.63;0.28;;;22.50;56.60;;;;;;4491715;31;20518;-68
2022/07/06 05:58:40;;;;;;;0.70;0.32;;;22.50;56.60;;;;;;4492305;31;20109;-66
2022/07/06 06:01:09;;;;;;;3.50;0.40;;;22.50;56.70;;;;;;4492577;31;20084;-66
2022/07/06 06:03:35;;;;;;;0.73;0.30;;;22.50;56.70;;;;;;4491506;31;20085;-66
2022/07/06 06:06:02;;;;;;;1.98;0.20;;;22.40;56.70;;;;;;4492608;31;20081;-66
2022/07/06 06:08:28;;;;;;;0.90;0.20;;;22.40;56.70;;;;;;4492468;31;20076;-71
2022/07/06 06:10:54;;;;;;;0.60;0.30;;;22.40;56.70;;;;;;4492302;31;20081;-66
2022/07/06 06:13:20;;;;;;;1.55;0.25;;;22.40;56.70;;;;;;4492584;31;20064;-67
2022/07/06 06:15:46;;;;;;;2.78;0.25;;;22.40;56.70;;;;;;4492530;31;20203;-66
2022/07/06 06:18:12;;;;;;;2.15;0.40;;;22.40;56.70;;;;;;4492775;31;20077;-66
2022/07/06 06:20:38;;;;;;;0.43;0.22;;;22.50;56.80;;;;;;4492386;31;20150;-65
2022/07/06 06:23:04;;;;;;;1.10;0.40;;;22.40;56.80;;;;;;4492054;31;20131;-67
2022/07/06 06:25:32;;;;;;;6.05;0.55;;;22.40;56.80;;;;;;4492337;31;20563;-66
2022/07/06 06:27:58;;;;;;;2.90;0.55;;;22.50;56.90;;;;;;4492344;31;20080;-66
2022/07/06 06:30:24;;;;;;;1.50;0.40;;;22.50;56.90;;;;;;4492571;31;20077;-66
2022/07/06 06:32:51;;;;;;;2.20;0.32;;;22.50;56.90;;;;;;4492177;31;20087;-68
2022/07/06 06:35:16;;;;;;;1.20;0.25;;;22.50;56.70;;;;;;4492343;31;20596;-66
2022/07/06 06:37:42;;;;;;;3.40;0.40;;;22.50;56.40;;;;;;4492489;31;20077;-67
2022/07/06 06:40:09;;;;;;;1.70;0.20;;;22.50;56.40;;;;;;4492088;31;20050;-66
2022/07/06 06:42:38;;;;;;;2.22;0.50;;;22.50;56.20;;;;;;4492131;31;20430;-66
2022/07/06 06:45:05;;;;;;;1.00;0.30;;;22.50;56.20;;;;;;4490497;31;20285;-67
2022/07/06 06:47:31;;;;;;;1.92;0.50;;;22.50;56.20;;;;;;4491849;31;20124;-67
2022/07/06 06:49:57;;;;;;;2.28;0.40;;;22.50;56.10;;;;;;4491788;31;20112;-67
2022/07/06 06:52:23;;;;;;;3.70;0.70;;;22.50;56.10;;;;;;4492126;31;20057;-67
2022/07/06 06:54:49;;;;;;;2.03;0.40;;;22.60;55.90;;;;;;4492314;31;20083;-67
2022/07/06 06:57:15;;;;;;;3.45;0.52;;;22.60;55.90;;;;;;4491725;31;20403;-67
2022/07/06 06:59:41;;;;;;;4.05;0.43;;;22.60;55.80;;;;;;4490954;31;20085;-66
2022/07/06 07:02:06;;;;;;;3.05;0.52;;;22.60;55.70;;;;;;4491351;31;20073;-73
2022/07/06 07:04:33;;;;;;;3.95;0.35;;;22.70;55.70;;;;;;4490617;31;20076;-67
2022/07/06 07:06:59;;;;;;;3.53;1.10;;;22.70;55.60;;;;;;4491893;31;20106;-70
2022/07/06 07:09:25;;;;;;;2.67;0.50;;;22.80;55.50;;;;;;4490683;31;20069;-66
2022/07/06 07:11:51;;;;;;;3.22;0.30;;;22.80;55.40;;;;;;4491973;32;20230;-66
2022/07/06 07:14:17;;;;;;;2.38;0.50;;;22.80;55.30;;;;;;4491838;32;20073;-66
2022/07/06 07:16:43;;;;;;;3.78;0.47;;;22.80;55.30;;;;;;4490517;32;20162;-67
2022/07/06 07:19:08;;;;;;;1.05;0.30;;;22.80;55.20;;;;;;4492032;32;20210;-67
2022/07/06 07:21:34;;;;;;;2.20;0.63;;;22.80;55.10;;;;;;4491884;32;20081;-67
2022/07/06 07:24:00;;;;;;;1.58;0.43;;;22.80;55.10;;;;;;4491635;32;20219;-67
2022/07/06 07:26:26;;;;;;;7.57;0.30;;;22.90;55.00;;;;;;4491563;32;20407;-67
2022/07/06 07:28:52;;;;;;;3.25;0.57;;;22.90;54.90;;;;;;4491787;32;20089;-68
2022/07/06 07:31:17;;;;;;;3.55;0.50;;;22.90;54.90;;;;;;4491754;32;20073;-67
2022/07/06 07:33:43;;;;;;;2.45;0.50;;;23.00;55.00;;;;;;4491896;32;20073;-66
2022/07/06 07:36:09;;;;;;;4.70;0.50;;;23.00;55.00;;;;;;4491671;32;20081;-67
2022/07/06 07:38:35;;;;;;;12.50;0.50;;;23.00;55.00;;;;;;4491784;32;20545;-66
2022/07/06 07:41:01;;;;;;;1.80;0.55;;;23.10;55.00;;;;;;4491634;32;20508;-67
2022/07/06 07:43:27;;;;;;;1.38;0.43;;;23.10;54.90;;;;;;4491700;32;20069;-67
2022/07/06 07:45:52;;;;;;;2.55;0.38;;;23.10;54.80;;;;;;4490505;32;20180;-66
2022/07/06 07:48:18;;;;;;;1.92;0.50;;;23.10;54.70;;;;;;4491882;32;20100;-66
2022/07/06 07:50:44;;;;;;;1.75;0.30;;;23.10;54.80;;;;;;4491422;32;20096;-67
2022/07/06 07:53:10;;;;;;;2.65;0.30;;;23.10;54.80;;;;;;4491713;32;20280;-66
2022/07/06 07:55:36;;;;;;;3.60;0.60;;;23.20;54.80;;;;;;4491725;31;20065;-66
2022/07/06 07:58:02;;;;;;;2.58;0.50;;;23.20;54.70;;;;;;4494788;31;20502;-66
2022/07/06 08:00:28;;;;;;;1.75;0.47;;;23.20;54.70;;;;;;4494438;31;20227;-65
2022/07/06 08:02:54;;;;;;;2.00;0.50;;;23.30;54.70;;;;;;4494440;31;20089;-65
2022/07/06 08:05:20;;;;;;;5.13;0.70;;;23.30;54.70;;;;;;4494493;31;20073;-66
2022/07/06 08:07:47;;;;;;;6.07;0.70;;;23.30;54.70;;;;;;4494183;31;20089;-66
2022/07/06 08:10:13;;;;;;;5.68;0.80;;;23.30;54.60;;;;;;4494662;31;20071;-65
2022/07/06 08:12:39;;;;;;;4.72;0.90;;;23.40;54.60;;;;;;4494338;31;20080;-65
2022/07/06 08:15:06;;;;;;;4.75;0.85;;;23.40;54.50;;;;;;4494074;31;20290;-65
2022/07/06 08:17:32;;;;;;;5.10;0.63;;;23.40;54.50;;;;;;4494289;31;20134;-66
2022/07/06 08:19:57;;;;;;;2.40;0.63;;;23.40;54.40;;;;;;4494345;31;20065;-65
2022/07/06 08:22:24;;;;;;;3.75;0.70;;;23.40;54.40;;;;;;4494437;31;20490;-66
2022/07/06 08:24:50;;;;;;;5.68;0.85;;;23.40;54.40;;;;;;4494191;31;20162;-66
2022/07/06 08:27:16;;;;;;;4.25;0.60;;;23.40;54.40;;;;;;4494169;31;20072;-66
2022/07/06 08:29:42;;;;;;;4.22;0.68;;;23.40;54.40;;;;;;4492961;31;20195;-66
2022/07/06 08:32:08;;;;;;;2.30;0.50;;;23.40;54.60;;;;;;4493835;31;20586;-66
2022/07/06 08:34:33;;;;;;;3.53;0.73;;;23.40;54.50;;;;;;4493769;31;20073;-66
2022/07/06 08:36:59;;;;;;;3.92;0.50;;;23.40;54.40;;;;;;4494100;31;20538;-65
2022/07/06 08:39:25;;;;;;;3.35;0.75;;;23.40;54.30;;;;;;4493935;31;20065;-66
2022/07/06 08:41:51;;;;;;;2.42;0.70;;;23.40;54.10;;;;;;4493982;31;20170;-66
2022/07/06 08:44:18;;;;;;;2.40;0.68;;;23.40;54.00;;;;;;4493848;31;20087;-66
2022/07/06 08:46:45;;;;;;;3.13;0.73;;;23.40;54.00;;;;;;4493836;31;20073;-66
2022/07/06 08:49:16;;;;;;;2.47;0.63;;;23.40;53.90;;;;;;4490986;31;20065;-68
2022/07/06 08:51:44;;;;;;;9.13;0.65;;;23.40;53.90;;;;;;4494268;31;20166;-67
2022/07/06 08:54:11;;;;;;;5.30;0.52;;;23.50;53.80;;;;;;4493681;31;20388;-67
2022/07/06 08:56:38;;;;;;;1.73;0.43;;;23.40;53.90;;;;;;4493376;31;20132;-66
2022/07/06 08:59:04;;;;;;;3.13;0.68;;;23.50;53.90;;;;;;4493545;31;20092;-66
2022/07/06 09:01:32;;;;;;;2.35;0.60;;;23.50;53.90;;;;;;4493349;31;20142;-66
2022/07/06 09:04:00;;;;;;;3.67;0.47;;;23.50;53.90;;;;;;4492363;31;20414;-69
2022/07/06 09:06:27;;;;;;;3.22;0.63;;;23.50;53.80;;;;;;4493156;31;20097;-69
2022/07/06 09:08:55;;;;;;;5.43;0.60;;;23.50;53.80;;;;;;4493234;31;20631;-73
2022/07/06 09:11:25;;;;;;;3.78;0.60;;;23.50;53.80;;;;;;4493500;31;20116;-66
2022/07/06 09:13:51;;;;;;;4.13;0.73;;;23.50;53.60;;;;;;4493810;31;20065;-66
2022/07/06 09:16:17;;;;;;;1.42;0.50;;;23.50;53.70;;;;;;4493373;31;20507;-68
2022/07/06 09:18:45;;;;;;;2.33;0.40;;;23.50;53.50;;;;;;4493006;31;20496;-66
2022/07/06 09:21:11;;;;;;;3.22;0.45;;;23.50;53.50;;;;;;4493244;31;20642;-66
2022/07/06 09:23:39;;;;;;;2.45;0.40;;;23.50;53.50;;;;;;4493238;31;20136;-66
2022/07/06 09:26:06;;;;;;;4.60;0.75;;;23.50;53.30;;;;;;4493194;31;20085;-66
2022/07/06 09:28:45;;;;;;;2.60;0.60;;;23.50;53.40;;;;;;4493164;31;20136;-66
2022/07/06 09:31:11;;;;;;;1.38;0.40;;;23.50;53.50;;;;;;4493254;31;20091;-66
2022/07/06 09:33:37;;;;;;;3.67;0.60;;;23.40;53.50;;;;;;4493013;31;20533;-66
2022/07/06 09:36:07;;;;;;;2.47;0.45;;;23.40;53.50;;;;;;4493549;31;20103;-66
2022/07/06 09:38:33;;;;;;;1.73;0.50;;;23.40;54.50;;;;;;4493112;31;20155;-67
2022/07/06 09:41:02;;;;;;;5.50;0.60;;;23.40;53.60;;;;;;4491743;31;20406;-73
2022/07/06 09:43:30;;;;;;;1.90;0.32;;;23.40;53.50;;;;;;4493110;31;20072;-67
2022/07/06 09:45:56;;;;;;;4.10;0.47;;;23.40;53.50;;;;;;4492759;31;20069;-67
2022/07/06 09:48:26;;;;;;;2.88;0.43;;;23.40;53.40;;;;;;4492640;31;20242;-67
2022/07/06 09:50:54;;;;;;;4.03;0.50;;;23.40;53.40;;;;;;4492656;31;20120;-66
2022/07/06 09:53:21;;;;;;;3.40;0.68;;;23.40;53.50;;;;;;4492992;31;20223;-66
2022/07/06 09:55:49;;;;;;;2.97;0.50;;;23.40;53.50;;;;;;4492867;31;20214;-67
2022/07/06 09:58:16;;;;;;;3.35;0.40;;;23.40;53.60;;;;;;4492856;31;20080;-66
2022/07/06 10:00:42;;;;;;;2.85;0.40;;;23.40;53.60;;;;;;4492289;31;20152;-66
2022/07/06 10:03:09;;;;;;;2.38;0.30;;;23.40;53.70;;;;;;4492429;31;20492;-66
2022/07/06 10:05:40;;;;;;;3.28;0.47;;;23.40;53.70;;;;;;4492871;31;20506;-67
2022/07/06 10:08:09;;;;;;;3.47;0.50;;;23.40;53.50;;;;;;4492663;31;20218;-67
2022/07/06 10:10:39;;;;;;;2.45;0.47;;;23.50;53.60;;;;;;4492933;31;20209;-67
2022/07/06 10:13:06;;;;;;;2.85;0.60;;;23.50;53.50;;;;;;4492822;31;20293;-67
2022/07/06 10:15:33;;;;;;;3.10;0.75;;;23.50;53.50;;;;;;4492263;31;20125;-66
2022/07/06 10:18:00;;;;;;;7.28;0.60;;;23.50;53.50;;;;;;4492105;31;20418;-66
2022/07/06 10:20:32;;;;;;;1.48;0.40;;;23.50;53.40;;;;;;4492416;31;20392;-66
2022/07/06 10:23:00;;;;;;;2.95;0.35;;;23.50;53.40;;;;;;4492659;31;20065;-67
2022/07/06 10:25:27;;;;;;;2.33;0.52;;;23.60;53.50;;;;;;4492325;31;20081;-65
2022/07/06 10:27:54;;;;;;;2.83;0.40;;;23.50;53.50;;;;;;4492343;31;20084;-66
2022/07/06 10:30:21;;;;;;;2.35;0.40;;;23.60;53.50;;;;;;4492128;31;20110;-72
2022/07/06 10:32:49;;;;;;;6.82;0.70;;;23.60;53.60;;;;;;4492308;31;20080;-66
2022/07/06 10:35:18;;;;;;;3.47;0.50;;;23.60;53.60;;;;;;4492268;31;20066;-66
2022/07/06 10:37:44;;;;;;;1.98;0.50;;;23.60;53.60;;;;;;4492194;31;20093;-66
2022/07/06 10:42:59;;;;;;;2.17;0.57;;;23.60;53.60;;;;;;4492364;31;20076;-67
2022/07/06 10:45:28;;;;;;;2.67;0.47;;;23.60;53.50;;;;;;4492135;31;20089;-66
2022/07/06 10:48:12;;;;;;;3.50;0.57;;;23.60;53.60;;;;;;4492072;31;20529;-67
2022/07/06 10:50:39;;;;;;;3.63;0.50;;;23.60;53.60;;;;;;4491655;31;20096;-68
2022/07/06 10:53:13;;;;;;;5.28;0.50;;;23.60;53.60;;;;;;4491749;31;20077;-69
2022/07/06 10:55:40;;;;;;;1.25;0.50;;;23.60;53.60;;;;;;4492373;31;20170;-66
2022/07/06 10:58:07;;;;;;;1.98;0.43;;;23.60;53.60;;;;;;4492205;31;20085;-66
2022/07/06 11:00:52;;;;;;;4.72;0.52;;;23.60;53.50;;;;;;4491832;31;20100;-67
2022/07/06 11:03:37;;;;;;;3.65;0.38;;;23.60;53.60;;;;;;4491765;31;20081;-66
2022/07/06 11:06:13;;;;;;;6.32;0.68;;;23.60;53.50;;;;;;4490830;31;20080;-67
2022/07/06 11:08:56;;;;;;;2.47;0.50;;;23.60;53.30;;;;;;4492134;31;20073;-66
2022/07/06 11:11:26;;;;;;;4.07;0.65;;;23.60;53.20;;;;;;4491878;31;20088;-67
2022/07/06 11:13:58;;;;;;;4.55;0.70;;;23.60;53.10;;;;;;4491767;31;20120;-66
2022/07/06 11:16:26;;;;;;;3.45;0.63;;;23.60;53.10;;;;;;4491881;32;20474;-66
2022/07/06 11:19:13;;;;;;;3.03;0.50;;;23.60;53.00;;;;;;4490557;32;20132;-66
2022/07/06 11:21:52;;;;;;;3.28;1.35;;;23.60;53.10;;;;;;4491830;32;20173;-70
2022/07/06 11:24:21;;;;;;;2.80;0.68;;;23.60;53.20;;;;;;4492431;32;20219;-67
2022/07/06 11:26:48;;;;;;;1.65;0.45;;;23.60;53.20;;;;;;4492008;32;20281;-67
2022/07/06 11:29:17;;;;;;;3.13;0.57;;;23.60;53.20;;;;;;4491662;31;20077;-66
2022/07/06 11:31:45;;;;;;;4.50;0.50;;;23.60;53.10;;;;;;4494568;31;20235;-66
2022/07/06 11:34:16;;;;;;;1.65;0.50;;;23.60;53.00;;;;;;4492325;31;20073;-72
2022/07/06 11:36:43;;;;;;;4.22;0.55;;;23.60;53.00;;;;;;4495292;31;20503;-65
2022/07/06 11:39:09;;;;;;;3.95;0.80;;;23.60;53.00;;;;;;4493776;31;20072;-66
2022/07/06 11:41:36;;;;;;;2.50;0.70;;;23.60;53.00;;;;;;4495080;31;20249;-65
2022/07/06 11:44:03;;;;;;;4.05;0.73;;;23.60;53.00;;;;;;4494812;31;20113;-66
2022/07/06 11:46:30;;;;;;;1.52;0.50;;;23.60;53.20;;;;;;4495051;31;20129;-65
2022/07/06 11:48:58;;;;;;;4.22;0.50;;;23.60;53.20;;;;;;4494559;31;20207;-66
2022/07/06 11:51:27;;;;;;;4.18;0.50;;;23.60;53.20;;;;;;4495286;31;20162;-66
2022/07/06 11:53:55;;;;;;;4.93;0.57;;;23.60;53.10;;;;;;4494931;31;20564;-66
2022/07/06 11:56:25;;;;;;;2.55;0.50;;;23.60;53.20;;;;;;4494863;31;20131;-65
2022/07/06 11:58:52;;;;;;;1.92;0.50;;;23.60;53.20;;;;;;4494273;31;20217;-69
2022/07/06 12:01:18;;;;;;;4.45;0.85;;;23.60;53.20;;;;;;4493639;31;20087;-66
2022/07/06 12:03:45;;;;;;;3.53;0.45;;;23.60;53.00;;;;;;4494424;31;20077;-66
2022/07/06 12:06:19;;;;;;;6.22;0.70;;;23.60;53.00;;;;;;4494452;31;20088;-70
2022/07/06 12:08:50;;;;;;;4.65;0.73;;;23.60;52.90;;;;;;4494117;31;20170;-66
2022/07/06 12:11:22;;;;;;;1.67;0.60;;;23.60;53.90;;;;;;4494455;31;20494;-66
2022/07/06 12:13:50;;;;;;;5.13;0.63;;;23.60;52.90;;;;;;4494419;31;20100;-67
2022/07/06 12:16:17;;;;;;;3.00;0.70;;;23.60;52.80;;;;;;4494233;31;20503;-66
2022/07/06 12:18:47;;;;;;;4.80;0.50;;;23.60;52.90;;;;;;4494329;31;20065;-66
2022/07/06 12:21:17;;;;;;;4.05;0.70;;;23.60;53.00;;;;;;4494149;31;20129;-67
2022/07/06 12:23:53;;;;;;;3.70;0.73;;;23.60;53.00;;;;;;4494140;31;20454;-66
2022/07/06 12:26:24;;;;;;;4.43;0.82;;;23.60;53.10;;;;;;4493161;31;20068;-66
2022/07/06 12:29:00;;;;;;;2.17;0.75;;;23.60;53.00;;;;;;4494249;31;20081;-66
2022/07/06 12:31:34;;;;;;;4.38;0.90;;;23.60;53.00;;;;;;4494037;31;20210;-66
2022/07/06 12:34:00;;;;;;;3.78;0.88;;;23.60;53.00;;;;;;4493684;31;20081;-66
2022/07/06 12:36:26;;;;;;;4.13;0.63;;;23.60;53.00;;;;;;4493821;31;20065;-65
2022/07/06 12:38:52;;;;;;;3.22;0.95;;;23.60;53.00;;;;;;4493756;31;20282;-65
2022/07/06 12:41:32;;;;;;;5.47;0.80;;;23.60;52.90;;;;;;4493899;31;20073;-66
2022/07/06 12:44:07;;;;;;;2.90;0.80;;;23.60;52.70;;;;;;4493819;31;20129;-66
2022/07/06 12:46:38;;;;;;;3.92;0.77;;;23.60;52.80;;;;;;4494015;31;20105;-66
2022/07/06 12:49:13;;;;;;;6.00;0.85;;;23.60;52.80;;;;;;4494175;31;20458;-66
2022/07/06 12:52:09;;;;;;;2.70;1.00;;;23.60;52.90;;;;;;4493668;31;20222;-65
2022/07/06 12:54:59;;;;;;;4.13;0.80;;;23.60;52.90;;;;;;4483474;31;20087;-66